sensor_id;sensor_type;location;lat;lon;timestamp;P1;durP1;ratioP1;P2;durP2;ratioP2
4051;SDS011;2040;50.924;11.604;2022-12-20T00:01:07;13.00;;;6.83;;
4051;SDS011;2040;50.924;11.604;2022-12-20T00:03:34;15.00;;;7.70;;
4051;SDS011;2040;50.924;11.604;2022-12-20T00:06:00;14.50;;;7.97;;
4051;SDS011;2040;50.924;11.604;2022-12-20T00:08:25;16.50;;;7.80;;
4051;SDS011;2040;50.924;11.604;2022-12-20T00:10:51;16.03;;;8.03;;
4051;SDS011;2040;50.924;11.604;2022-12-20T00:13:17;16.40;;;7.80;;
4051;SDS011;2040;50.924;11.604;2022-12-20T00:15:42;17.10;;;7.40;;
4051;SDS011;2040;50.924;11.604;2022-12-20T00:18:08;15.63;;;7.73;;
4051;SDS011;2040;50.924;11.604;2022-12-20T00:20:34;17.47;;;7.77;;
4051;SDS011;2040;50.924;11.604;2022-12-20T00:23:00;16.13;;;7.47;;
4051;SDS011;2040;50.924;11.604;2022-12-20T00:25:26;14.37;;;6.30;;
4051;SDS011;2040;50.924;11.604;2022-12-20T00:27:51;15.80;;;7.13;;
4051;SDS011;2040;50.924;11.604;2022-12-20T00:30:17;11.97;;;7.23;;
4051;SDS011;2040;50.924;11.604;2022-12-20T00:32:43;18.97;;;9.00;;
4051;SDS011;2040;50.924;11.604;2022-12-20T00:35:10;12.07;;;7.27;;
4051;SDS011;2040;50.924;11.604;2022-12-20T00:37:39;14.40;;;7.37;;
4051;SDS011;2040;50.924;11.604;2022-12-20T00:40:05;21.17;;;8.63;;
4051;SDS011;2040;50.924;11.604;2022-12-20T00:42:31;14.43;;;7.87;;
4051;SDS011;2040;50.924;11.604;2022-12-20T00:44:57;14.03;;;6.50;;
4051;SDS011;2040;50.924;11.604;2022-12-20T00:47:23;15.70;;;7.30;;
4051;SDS011;2040;50.924;11.604;2022-12-20T00:49:48;16.57;;;7.73;;
4051;SDS011;2040;50.924;11.604;2022-12-20T00:52:14;21.20;;;7.70;;
4051;SDS011;2040;50.924;11.604;2022-12-20T00:54:39;15.03;;;7.60;;
4051;SDS011;2040;50.924;11.604;2022-12-20T00:57:05;19.60;;;7.47;;
4051;SDS011;2040;50.924;11.604;2022-12-20T00:59:31;13.87;;;7.00;;
4051;SDS011;2040;50.924;11.604;2022-12-20T01:01:57;15.10;;;6.50;;
4051;SDS011;2040;50.924;11.604;2022-12-20T01:04:23;10.70;;;5.17;;
4051;SDS011;2040;50.924;11.604;2022-12-20T01:06:48;16.53;;;6.03;;
4051;SDS011;2040;50.924;11.604;2022-12-20T01:09:14;14.33;;;7.20;;
4051;SDS011;2040;50.924;11.604;2022-12-20T01:11:40;12.50;;;6.80;;
4051;SDS011;2040;50.924;11.604;2022-12-20T01:14:06;18.60;;;6.97;;
4051;SDS011;2040;50.924;11.604;2022-12-20T01:16:37;11.90;;;5.97;;
4051;SDS011;2040;50.924;11.604;2022-12-20T01:19:08;10.73;;;5.87;;
4051;SDS011;2040;50.924;11.604;2022-12-20T01:21:36;13.47;;;6.03;;
4051;SDS011;2040;50.924;11.604;2022-12-20T01:24:03;15.97;;;6.70;;
4051;SDS011;2040;50.924;11.604;2022-12-20T01:26:29;11.30;;;5.57;;
4051;SDS011;2040;50.924;11.604;2022-12-20T01:28:56;9.00;;;4.93;;
4051;SDS011;2040;50.924;11.604;2022-12-20T01:31:26;13.97;;;7.00;;
4051;SDS011;2040;50.924;11.604;2022-12-20T01:33:52;11.60;;;6.00;;
4051;SDS011;2040;50.924;11.604;2022-12-20T01:36:19;14.50;;;6.50;;
4051;SDS011;2040;50.924;11.604;2022-12-20T01:38:49;14.30;;;6.37;;
4051;SDS011;2040;50.924;11.604;2022-12-20T01:41:19;15.70;;;5.90;;
4051;SDS011;2040;50.924;11.604;2022-12-20T01:43:53;13.13;;;5.73;;
4051;SDS011;2040;50.924;11.604;2022-12-20T01:46:24;11.70;;;6.03;;
4051;SDS011;2040;50.924;11.604;2022-12-20T01:48:58;14.83;;;7.67;;
4051;SDS011;2040;50.924;11.604;2022-12-20T01:51:28;14.93;;;7.87;;
4051;SDS011;2040;50.924;11.604;2022-12-20T01:53:57;12.00;;;5.70;;
4051;SDS011;2040;50.924;11.604;2022-12-20T01:56:28;14.57;;;6.70;;
4051;SDS011;2040;50.924;11.604;2022-12-20T01:58:54;10.80;;;5.83;;
4051;SDS011;2040;50.924;11.604;2022-12-20T02:01:22;12.03;;;6.77;;
4051;SDS011;2040;50.924;11.604;2022-12-20T02:03:48;13.30;;;6.87;;
4051;SDS011;2040;50.924;11.604;2022-12-20T02:06:21;12.27;;;6.20;;
4051;SDS011;2040;50.924;11.604;2022-12-20T02:08:48;11.93;;;6.30;;
4051;SDS011;2040;50.924;11.604;2022-12-20T02:16:47;11.60;;;4.87;;
4051;SDS011;2040;50.924;11.604;2022-12-20T02:27:59;8.07;;;5.60;;
4051;SDS011;2040;50.924;11.604;2022-12-20T02:30:46;11.37;;;5.43;;
4051;SDS011;2040;50.924;11.604;2022-12-20T02:33:14;10.77;;;5.60;;
4051;SDS011;2040;50.924;11.604;2022-12-20T02:35:40;14.17;;;6.40;;
4051;SDS011;2040;50.924;11.604;2022-12-20T02:38:27;13.33;;;6.27;;
4051;SDS011;2040;50.924;11.604;2022-12-20T02:40:59;12.33;;;6.37;;
4051;SDS011;2040;50.924;11.604;2022-12-20T02:43:39;12.40;;;6.50;;
4051;SDS011;2040;50.924;11.604;2022-12-20T02:46:25;10.10;;;5.70;;
4051;SDS011;2040;50.924;11.604;2022-12-20T02:48:52;12.60;;;6.73;;
4051;SDS011;2040;50.924;11.604;2022-12-20T02:51:22;12.03;;;6.63;;
4051;SDS011;2040;50.924;11.604;2022-12-20T02:53:50;13.33;;;6.77;;
4051;SDS011;2040;50.924;11.604;2022-12-20T03:01:47;13.30;;;7.93;;
4051;SDS011;2040;50.924;11.604;2022-12-20T03:04:19;12.60;;;7.30;;
4051;SDS011;2040;50.924;11.604;2022-12-20T03:06:58;17.70;;;8.97;;
4051;SDS011;2040;50.924;11.604;2022-12-20T03:09:36;14.10;;;7.10;;
4051;SDS011;2040;50.924;11.604;2022-12-20T03:12:04;16.13;;;7.03;;
4051;SDS011;2040;50.924;11.604;2022-12-20T03:14:30;11.70;;;7.30;;
4051;SDS011;2040;50.924;11.604;2022-12-20T03:16:55;12.37;;;7.47;;
4051;SDS011;2040;50.924;11.604;2022-12-20T03:19:21;17.67;;;8.13;;
4051;SDS011;2040;50.924;11.604;2022-12-20T03:21:47;19.70;;;8.70;;
4051;SDS011;2040;50.924;11.604;2022-12-20T03:24:12;13.07;;;6.93;;
4051;SDS011;2040;50.924;11.604;2022-12-20T03:26:41;15.37;;;7.90;;
4051;SDS011;2040;50.924;11.604;2022-12-20T03:29:07;19.30;;;7.33;;
4051;SDS011;2040;50.924;11.604;2022-12-20T03:31:33;17.10;;;7.40;;
4051;SDS011;2040;50.924;11.604;2022-12-20T03:33:59;22.20;;;7.67;;
4051;SDS011;2040;50.924;11.604;2022-12-20T03:36:25;15.03;;;7.13;;
4051;SDS011;2040;50.924;11.604;2022-12-20T03:38:51;21.90;;;8.33;;
4051;SDS011;2040;50.924;11.604;2022-12-20T03:41:17;16.97;;;8.13;;
4051;SDS011;2040;50.924;11.604;2022-12-20T03:43:45;20.20;;;8.53;;
4051;SDS011;2040;50.924;11.604;2022-12-20T03:46:11;21.37;;;8.60;;
4051;SDS011;2040;50.924;11.604;2022-12-20T03:48:37;13.93;;;8.23;;
4051;SDS011;2040;50.924;11.604;2022-12-20T03:51:02;16.67;;;8.50;;
4051;SDS011;2040;50.924;11.604;2022-12-20T03:53:28;17.90;;;8.27;;
4051;SDS011;2040;50.924;11.604;2022-12-20T03:55:54;20.70;;;9.70;;
4051;SDS011;2040;50.924;11.604;2022-12-20T03:58:20;22.33;;;9.60;;
4051;SDS011;2040;50.924;11.604;2022-12-20T04:00:46;26.67;;;11.23;;
4051;SDS011;2040;50.924;11.604;2022-12-20T04:03:11;19.27;;;9.87;;
4051;SDS011;2040;50.924;11.604;2022-12-20T04:05:37;17.53;;;8.17;;
4051;SDS011;2040;50.924;11.604;2022-12-20T04:08:02;30.87;;;10.30;;
4051;SDS011;2040;50.924;11.604;2022-12-20T04:10:28;21.60;;;9.17;;
4051;SDS011;2040;50.924;11.604;2022-12-20T04:12:54;19.97;;;10.07;;
4051;SDS011;2040;50.924;11.604;2022-12-20T04:15:19;20.53;;;10.80;;
4051;SDS011;2040;50.924;11.604;2022-12-20T04:17:45;22.77;;;10.23;;
4051;SDS011;2040;50.924;11.604;2022-12-20T04:20:13;17.97;;;9.13;;
4051;SDS011;2040;50.924;11.604;2022-12-20T04:22:52;16.70;;;9.00;;
4051;SDS011;2040;50.924;11.604;2022-12-20T04:25:18;24.47;;;8.97;;
4051;SDS011;2040;50.924;11.604;2022-12-20T04:27:45;20.17;;;10.27;;
4051;SDS011;2040;50.924;11.604;2022-12-20T04:30:11;17.43;;;9.40;;
4051;SDS011;2040;50.924;11.604;2022-12-20T04:32:37;20.50;;;10.30;;
4051;SDS011;2040;50.924;11.604;2022-12-20T04:35:03;22.60;;;9.00;;
4051;SDS011;2040;50.924;11.604;2022-12-20T04:37:29;19.47;;;9.77;;
4051;SDS011;2040;50.924;11.604;2022-12-20T04:39:55;17.90;;;8.17;;
4051;SDS011;2040;50.924;11.604;2022-12-20T04:42:22;18.37;;;9.37;;
4051;SDS011;2040;50.924;11.604;2022-12-20T04:44:48;16.70;;;8.97;;
4051;SDS011;2040;50.924;11.604;2022-12-20T04:47:14;17.43;;;9.07;;
4051;SDS011;2040;50.924;11.604;2022-12-20T04:49:39;17.77;;;9.17;;
4051;SDS011;2040;50.924;11.604;2022-12-20T04:52:05;19.33;;;8.80;;
4051;SDS011;2040;50.924;11.604;2022-12-20T04:54:49;21.90;;;9.20;;
4051;SDS011;2040;50.924;11.604;2022-12-20T04:57:15;21.40;;;9.20;;
4051;SDS011;2040;50.924;11.604;2022-12-20T04:59:40;19.23;;;8.60;;
4051;SDS011;2040;50.924;11.604;2022-12-20T05:02:06;16.23;;;8.10;;
4051;SDS011;2040;50.924;11.604;2022-12-20T05:04:31;14.33;;;8.57;;
4051;SDS011;2040;50.924;11.604;2022-12-20T05:06:57;23.63;;;9.60;;
4051;SDS011;2040;50.924;11.604;2022-12-20T05:09:23;17.83;;;8.20;;
4051;SDS011;2040;50.924;11.604;2022-12-20T05:11:48;18.07;;;8.47;;
4051;SDS011;2040;50.924;11.604;2022-12-20T05:14:14;14.93;;;7.57;;
4051;SDS011;2040;50.924;11.604;2022-12-20T05:16:39;21.00;;;8.53;;
4051;SDS011;2040;50.924;11.604;2022-12-20T05:19:05;15.93;;;8.03;;
4051;SDS011;2040;50.924;11.604;2022-12-20T05:21:31;17.07;;;7.73;;
4051;SDS011;2040;50.924;11.604;2022-12-20T05:24:15;13.77;;;7.70;;
4051;SDS011;2040;50.924;11.604;2022-12-20T05:26:59;14.53;;;7.40;;
4051;SDS011;2040;50.924;11.604;2022-12-20T05:29:25;18.80;;;8.17;;
4051;SDS011;2040;50.924;11.604;2022-12-20T05:31:50;15.10;;;7.73;;
4051;SDS011;2040;50.924;11.604;2022-12-20T05:34:16;14.13;;;8.17;;
4051;SDS011;2040;50.924;11.604;2022-12-20T05:36:42;13.70;;;7.80;;
4051;SDS011;2040;50.924;11.604;2022-12-20T05:39:08;15.43;;;7.43;;
4051;SDS011;2040;50.924;11.604;2022-12-20T05:41:35;11.47;;;6.70;;
4051;SDS011;2040;50.924;11.604;2022-12-20T05:44:01;19.10;;;7.70;;
4051;SDS011;2040;50.924;11.604;2022-12-20T05:46:27;11.20;;;6.33;;
4051;SDS011;2040;50.924;11.604;2022-12-20T05:48:53;10.20;;;5.80;;
4051;SDS011;2040;50.924;11.604;2022-12-20T05:51:19;12.80;;;7.23;;
4051;SDS011;2040;50.924;11.604;2022-12-20T05:53:44;17.33;;;7.60;;
4051;SDS011;2040;50.924;11.604;2022-12-20T05:56:10;12.90;;;5.90;;
4051;SDS011;2040;50.924;11.604;2022-12-20T05:58:36;17.27;;;7.13;;
4051;SDS011;2040;50.924;11.604;2022-12-20T06:01:02;14.80;;;7.70;;
4051;SDS011;2040;50.924;11.604;2022-12-20T06:03:29;11.57;;;7.00;;
4051;SDS011;2040;50.924;11.604;2022-12-20T06:05:54;13.00;;;6.50;;
4051;SDS011;2040;50.924;11.604;2022-12-20T06:08:20;16.93;;;7.30;;
4051;SDS011;2040;50.924;11.604;2022-12-20T06:10:47;16.10;;;7.73;;
4051;SDS011;2040;50.924;11.604;2022-12-20T06:13:13;11.93;;;5.83;;
4051;SDS011;2040;50.924;11.604;2022-12-20T06:15:40;17.33;;;6.53;;
4051;SDS011;2040;50.924;11.604;2022-12-20T06:18:06;14.10;;;6.87;;
4051;SDS011;2040;50.924;11.604;2022-12-20T06:20:32;11.43;;;6.30;;
4051;SDS011;2040;50.924;11.604;2022-12-20T06:22:59;9.30;;;6.20;;
4051;SDS011;2040;50.924;11.604;2022-12-20T06:25:25;15.50;;;6.87;;
4051;SDS011;2040;50.924;11.604;2022-12-20T06:27:52;16.47;;;7.93;;
4051;SDS011;2040;50.924;11.604;2022-12-20T06:30:18;13.40;;;7.60;;
4051;SDS011;2040;50.924;11.604;2022-12-20T06:32:45;14.77;;;6.67;;
4051;SDS011;2040;50.924;11.604;2022-12-20T06:35:10;12.93;;;6.67;;
4051;SDS011;2040;50.924;11.604;2022-12-20T06:37:36;17.43;;;7.80;;
4051;SDS011;2040;50.924;11.604;2022-12-20T06:40:04;11.50;;;6.00;;
4051;SDS011;2040;50.924;11.604;2022-12-20T06:42:31;12.40;;;6.40;;
4051;SDS011;2040;50.924;11.604;2022-12-20T06:44:57;13.00;;;6.27;;
4051;SDS011;2040;50.924;11.604;2022-12-20T06:47:22;15.07;;;7.60;;
4051;SDS011;2040;50.924;11.604;2022-12-20T06:49:48;17.93;;;7.17;;
4051;SDS011;2040;50.924;11.604;2022-12-20T06:52:13;12.33;;;6.20;;
4051;SDS011;2040;50.924;11.604;2022-12-20T06:54:39;15.60;;;7.80;;
4051;SDS011;2040;50.924;11.604;2022-12-20T06:57:05;11.70;;;5.93;;
4051;SDS011;2040;50.924;11.604;2022-12-20T06:59:31;17.53;;;7.47;;
4051;SDS011;2040;50.924;11.604;2022-12-20T07:01:56;13.20;;;7.20;;
4051;SDS011;2040;50.924;11.604;2022-12-20T07:04:22;16.37;;;6.47;;
4051;SDS011;2040;50.924;11.604;2022-12-20T07:06:48;16.33;;;7.13;;
4051;SDS011;2040;50.924;11.604;2022-12-20T07:09:13;15.63;;;7.20;;
4051;SDS011;2040;50.924;11.604;2022-12-20T07:11:39;14.53;;;7.83;;
4051;SDS011;2040;50.924;11.604;2022-12-20T07:14:07;13.13;;;8.10;;
4051;SDS011;2040;50.924;11.604;2022-12-20T07:16:33;15.63;;;6.83;;
4051;SDS011;2040;50.924;11.604;2022-12-20T07:19:00;14.00;;;8.10;;
4051;SDS011;2040;50.924;11.604;2022-12-20T07:21:26;13.57;;;6.60;;
4051;SDS011;2040;50.924;11.604;2022-12-20T07:23:51;15.70;;;8.33;;
4051;SDS011;2040;50.924;11.604;2022-12-20T07:26:18;19.87;;;9.27;;
4051;SDS011;2040;50.924;11.604;2022-12-20T07:28:44;15.30;;;7.70;;
4051;SDS011;2040;50.924;11.604;2022-12-20T07:31:10;16.50;;;8.43;;
4051;SDS011;2040;50.924;11.604;2022-12-20T07:33:35;14.73;;;7.87;;
4051;SDS011;2040;50.924;11.604;2022-12-20T07:36:06;13.73;;;7.37;;
4051;SDS011;2040;50.924;11.604;2022-12-20T07:38:34;17.37;;;8.30;;
4051;SDS011;2040;50.924;11.604;2022-12-20T07:41:00;12.40;;;6.97;;
4051;SDS011;2040;50.924;11.604;2022-12-20T07:43:41;10.53;;;6.80;;
4051;SDS011;2040;50.924;11.604;2022-12-20T07:46:07;13.53;;;6.97;;
4051;SDS011;2040;50.924;11.604;2022-12-20T07:48:35;11.87;;;6.63;;
4051;SDS011;2040;50.924;11.604;2022-12-20T07:51:02;14.40;;;7.00;;
4051;SDS011;2040;50.924;11.604;2022-12-20T07:53:34;12.63;;;6.40;;
4051;SDS011;2040;50.924;11.604;2022-12-20T07:56:03;11.00;;;5.63;;
4051;SDS011;2040;50.924;11.604;2022-12-20T07:58:30;11.53;;;6.20;;
4051;SDS011;2040;50.924;11.604;2022-12-20T08:00:58;16.83;;;7.13;;
4051;SDS011;2040;50.924;11.604;2022-12-20T08:03:30;9.83;;;6.10;;
4051;SDS011;2040;50.924;11.604;2022-12-20T08:06:01;16.80;;;7.93;;
4051;SDS011;2040;50.924;11.604;2022-12-20T08:08:32;11.30;;;5.80;;
4051;SDS011;2040;50.924;11.604;2022-12-20T08:11:02;8.80;;;6.17;;
4051;SDS011;2040;50.924;11.604;2022-12-20T08:13:31;12.83;;;5.83;;
4051;SDS011;2040;50.924;11.604;2022-12-20T08:15:58;17.90;;;7.00;;
4051;SDS011;2040;50.924;11.604;2022-12-20T08:18:24;15.93;;;7.07;;
4051;SDS011;2040;50.924;11.604;2022-12-20T08:20:50;13.93;;;7.03;;
4051;SDS011;2040;50.924;11.604;2022-12-20T08:23:15;14.83;;;6.53;;
4051;SDS011;2040;50.924;11.604;2022-12-20T08:25:41;10.90;;;7.17;;
4051;SDS011;2040;50.924;11.604;2022-12-20T08:28:07;13.00;;;6.97;;
4051;SDS011;2040;50.924;11.604;2022-12-20T08:30:33;16.93;;;6.80;;
4051;SDS011;2040;50.924;11.604;2022-12-20T08:32:58;11.40;;;6.73;;
4051;SDS011;2040;50.924;11.604;2022-12-20T08:35:24;14.47;;;6.07;;
4051;SDS011;2040;50.924;11.604;2022-12-20T08:37:50;16.03;;;6.70;;
4051;SDS011;2040;50.924;11.604;2022-12-20T08:40:16;14.93;;;7.77;;
4051;SDS011;2040;50.924;11.604;2022-12-20T08:42:43;13.37;;;7.07;;
4051;SDS011;2040;50.924;11.604;2022-12-20T08:45:09;12.30;;;6.90;;
4051;SDS011;2040;50.924;11.604;2022-12-20T08:47:35;16.80;;;6.80;;
4051;SDS011;2040;50.924;11.604;2022-12-20T08:50:00;12.67;;;7.10;;
4051;SDS011;2040;50.924;11.604;2022-12-20T08:52:29;14.73;;;6.87;;
4051;SDS011;2040;50.924;11.604;2022-12-20T08:54:55;10.80;;;6.77;;
4051;SDS011;2040;50.924;11.604;2022-12-20T08:57:20;10.90;;;6.33;;
4051;SDS011;2040;50.924;11.604;2022-12-20T08:59:46;18.57;;;6.97;;
4051;SDS011;2040;50.924;11.604;2022-12-20T09:02:11;14.10;;;6.43;;
4051;SDS011;2040;50.924;11.604;2022-12-20T09:04:37;13.63;;;6.83;;
4051;SDS011;2040;50.924;11.604;2022-12-20T09:07:02;12.87;;;6.40;;
4051;SDS011;2040;50.924;11.604;2022-12-20T09:09:28;16.57;;;7.10;;
4051;SDS011;2040;50.924;11.604;2022-12-20T09:11:54;10.23;;;5.80;;
4051;SDS011;2040;50.924;11.604;2022-12-20T09:14:19;12.20;;;6.63;;
4051;SDS011;2040;50.924;11.604;2022-12-20T09:16:45;17.30;;;8.33;;
4051;SDS011;2040;50.924;11.604;2022-12-20T09:19:11;11.00;;;6.27;;
4051;SDS011;2040;50.924;11.604;2022-12-20T09:21:38;11.10;;;6.40;;
4051;SDS011;2040;50.924;11.604;2022-12-20T09:24:03;16.00;;;7.43;;
4051;SDS011;2040;50.924;11.604;2022-12-20T09:26:30;13.17;;;7.20;;
4051;SDS011;2040;50.924;11.604;2022-12-20T09:28:56;14.80;;;6.83;;
4051;SDS011;2040;50.924;11.604;2022-12-20T09:31:23;16.53;;;7.73;;
4051;SDS011;2040;50.924;11.604;2022-12-20T09:33:53;14.47;;;7.10;;
4051;SDS011;2040;50.924;11.604;2022-12-20T09:36:21;11.63;;;6.20;;
4051;SDS011;2040;50.924;11.604;2022-12-20T09:38:47;15.73;;;6.50;;
4051;SDS011;2040;50.924;11.604;2022-12-20T09:43:58;11.57;;;6.17;;
4051;SDS011;2040;50.924;11.604;2022-12-20T09:46:28;11.53;;;6.73;;
4051;SDS011;2040;50.924;11.604;2022-12-20T09:48:54;12.67;;;6.17;;
4051;SDS011;2040;50.924;11.604;2022-12-20T09:51:26;15.90;;;6.40;;
4051;SDS011;2040;50.924;11.604;2022-12-20T09:54:10;13.00;;;6.33;;
4051;SDS011;2040;50.924;11.604;2022-12-20T09:56:45;13.93;;;6.20;;
4051;SDS011;2040;50.924;11.604;2022-12-20T09:59:34;12.30;;;6.47;;
4051;SDS011;2040;50.924;11.604;2022-12-20T10:02:07;11.90;;;5.80;;
4051;SDS011;2040;50.924;11.604;2022-12-20T10:04:36;13.00;;;6.10;;
4051;SDS011;2040;50.924;11.604;2022-12-20T10:12:36;11.40;;;6.47;;
4051;SDS011;2040;50.924;11.604;2022-12-20T10:15:40;14.30;;;6.37;;
4051;SDS011;2040;50.924;11.604;2022-12-20T10:24:02;8.90;;;5.60;;
4051;SDS011;2040;50.924;11.604;2022-12-20T10:26:34;9.63;;;5.93;;
4051;SDS011;2040;50.924;11.604;2022-12-20T10:28:59;12.67;;;7.20;;
4051;SDS011;2040;50.924;11.604;2022-12-20T10:31:25;15.67;;;5.37;;
4051;SDS011;2040;50.924;11.604;2022-12-20T10:33:51;13.60;;;6.90;;
4051;SDS011;2040;50.924;11.604;2022-12-20T10:36:17;15.43;;;6.40;;
4051;SDS011;2040;50.924;11.604;2022-12-20T10:38:52;11.93;;;6.33;;
4051;SDS011;2040;50.924;11.604;2022-12-20T10:41:23;12.67;;;6.50;;
4051;SDS011;2040;50.924;11.604;2022-12-20T10:43:52;9.63;;;5.93;;
4051;SDS011;2040;50.924;11.604;2022-12-20T10:46:22;11.37;;;5.83;;
4051;SDS011;2040;50.924;11.604;2022-12-20T10:51:55;12.90;;;5.80;;
4051;SDS011;2040;50.924;11.604;2022-12-20T10:54:31;10.10;;;6.20;;
4051;SDS011;2040;50.924;11.604;2022-12-20T10:56:58;18.40;;;7.60;;
4051;SDS011;2040;50.924;11.604;2022-12-20T10:59:30;11.10;;;6.47;;
4051;SDS011;2040;50.924;11.604;2022-12-20T11:04:57;10.77;;;6.47;;
4051;SDS011;2040;50.924;11.604;2022-12-20T11:07:54;10.53;;;5.87;;
4051;SDS011;2040;50.924;11.604;2022-12-20T11:10:26;12.03;;;6.27;;
4051;SDS011;2040;50.924;11.604;2022-12-20T11:13:00;11.23;;;6.37;;
4051;SDS011;2040;50.924;11.604;2022-12-20T11:15:31;18.13;;;7.30;;
4051;SDS011;2040;50.924;11.604;2022-12-20T11:17:59;13.20;;;5.80;;
4051;SDS011;2040;50.924;11.604;2022-12-20T11:23:20;12.53;;;6.93;;
4051;SDS011;2040;50.924;11.604;2022-12-20T11:26:00;13.80;;;5.80;;
4051;SDS011;2040;50.924;11.604;2022-12-20T11:42:26;11.20;;;5.90;;
4051;SDS011;2040;50.924;11.604;2022-12-20T11:53:00;9.97;;;5.80;;
4051;SDS011;2040;50.924;11.604;2022-12-20T11:55:34;11.60;;;6.33;;
4051;SDS011;2040;50.924;11.604;2022-12-20T11:58:05;12.97;;;6.17;;
4051;SDS011;2040;50.924;11.604;2022-12-20T12:00:43;14.00;;;6.40;;
4051;SDS011;2040;50.924;11.604;2022-12-20T12:06:02;9.27;;;5.30;;
4051;SDS011;2040;50.924;11.604;2022-12-20T12:09:00;12.83;;;7.00;;
4051;SDS011;2040;50.924;11.604;2022-12-20T12:11:36;12.17;;;6.40;;
4051;SDS011;2040;50.924;11.604;2022-12-20T12:14:05;11.20;;;6.20;;
4051;SDS011;2040;50.924;11.604;2022-12-20T12:16:41;10.87;;;5.90;;
4051;SDS011;2040;50.924;11.604;2022-12-20T12:19:11;9.53;;;5.97;;
4051;SDS011;2040;50.924;11.604;2022-12-20T12:21:39;11.27;;;5.43;;
4051;SDS011;2040;50.924;11.604;2022-12-20T12:24:17;16.47;;;5.50;;
4051;SDS011;2040;50.924;11.604;2022-12-20T12:26:47;8.20;;;5.37;;
4051;SDS011;2040;50.924;11.604;2022-12-20T12:29:16;10.07;;;5.50;;
4051;SDS011;2040;50.924;11.604;2022-12-20T12:31:54;18.03;;;6.30;;
4051;SDS011;2040;50.924;11.604;2022-12-20T12:45:42;9.43;;;5.00;;
4051;SDS011;2040;50.924;11.604;2022-12-20T12:50:56;10.37;;;5.27;;
4051;SDS011;2040;50.924;11.604;2022-12-20T12:53:31;10.00;;;5.33;;
4051;SDS011;2040;50.924;11.604;2022-12-20T12:59:18;9.03;;;6.00;;
4051;SDS011;2040;50.924;11.604;2022-12-20T13:04:52;8.40;;;4.90;;
4051;SDS011;2040;50.924;11.604;2022-12-20T13:15:44;8.53;;;4.70;;
4051;SDS011;2040;50.924;11.604;2022-12-20T13:24:01;9.43;;;5.43;;
4051;SDS011;2040;50.924;11.604;2022-12-20T13:26:54;7.60;;;5.00;;
4051;SDS011;2040;50.924;11.604;2022-12-20T13:29:24;15.00;;;5.77;;
4051;SDS011;2040;50.924;11.604;2022-12-20T13:31:51;8.73;;;5.30;;
4051;SDS011;2040;50.924;11.604;2022-12-20T13:37:50;9.07;;;5.10;;
4051;SDS011;2040;50.924;11.604;2022-12-20T13:45:53;9.40;;;5.20;;
4051;SDS011;2040;50.924;11.604;2022-12-20T13:48:41;10.30;;;6.10;;
4051;SDS011;2040;50.924;11.604;2022-12-20T13:51:22;12.30;;;5.27;;
4051;SDS011;2040;50.924;11.604;2022-12-20T13:53:50;8.97;;;5.23;;
4051;SDS011;2040;50.924;11.604;2022-12-20T13:58:54;13.70;;;5.87;;
4051;SDS011;2040;50.924;11.604;2022-12-20T14:01:27;10.07;;;4.83;;
4051;SDS011;2040;50.924;11.604;2022-12-20T14:03:55;11.30;;;5.37;;
4051;SDS011;2040;50.924;11.604;2022-12-20T14:06:21;8.47;;;4.73;;
4051;SDS011;2040;50.924;11.604;2022-12-20T14:08:49;8.30;;;5.07;;
4051;SDS011;2040;50.924;11.604;2022-12-20T14:11:20;10.43;;;5.20;;
4051;SDS011;2040;50.924;11.604;2022-12-20T14:14:00;8.30;;;5.27;;
4051;SDS011;2040;50.924;11.604;2022-12-20T14:16:28;9.00;;;5.13;;
4051;SDS011;2040;50.924;11.604;2022-12-20T14:21:20;9.10;;;5.07;;
4051;SDS011;2040;50.924;11.604;2022-12-20T14:23:47;8.57;;;5.17;;
4051;SDS011;2040;50.924;11.604;2022-12-20T14:26:19;7.53;;;4.43;;
4051;SDS011;2040;50.924;11.604;2022-12-20T14:28:49;8.47;;;5.50;;
4051;SDS011;2040;50.924;11.604;2022-12-20T14:36:38;9.43;;;5.57;;
4051;SDS011;2040;50.924;11.604;2022-12-20T14:44:24;8.77;;;4.93;;
4051;SDS011;2040;50.924;11.604;2022-12-20T14:46:52;9.20;;;4.57;;
4051;SDS011;2040;50.924;11.604;2022-12-20T14:51:48;9.77;;;5.53;;
4051;SDS011;2040;50.924;11.604;2022-12-20T14:54:16;9.33;;;4.23;;
4051;SDS011;2040;50.924;11.604;2022-12-20T14:56:44;11.50;;;5.30;;
4051;SDS011;2040;50.924;11.604;2022-12-20T14:59:14;7.47;;;4.60;;
4051;SDS011;2040;50.924;11.604;2022-12-20T15:01:48;10.63;;;4.90;;
4051;SDS011;2040;50.924;11.604;2022-12-20T15:04:22;9.70;;;4.90;;
4051;SDS011;2040;50.924;11.604;2022-12-20T15:06:59;9.17;;;4.60;;
4051;SDS011;2040;50.924;11.604;2022-12-20T15:09:25;8.37;;;4.73;;
4051;SDS011;2040;50.924;11.604;2022-12-20T15:11:51;14.63;;;5.53;;
4051;SDS011;2040;50.924;11.604;2022-12-20T15:14:20;9.40;;;4.77;;
4051;SDS011;2040;50.924;11.604;2022-12-20T15:17:11;9.37;;;5.20;;
4051;SDS011;2040;50.924;11.604;2022-12-20T15:19:38;6.77;;;4.50;;
4051;SDS011;2040;50.924;11.604;2022-12-20T15:22:04;8.00;;;5.23;;
4051;SDS011;2040;50.924;11.604;2022-12-20T15:24:30;11.00;;;5.40;;
4051;SDS011;2040;50.924;11.604;2022-12-20T15:26:56;9.63;;;4.70;;
4051;SDS011;2040;50.924;11.604;2022-12-20T15:29:22;9.30;;;4.07;;
4051;SDS011;2040;50.924;11.604;2022-12-20T15:31:50;9.30;;;4.87;;
4051;SDS011;2040;50.924;11.604;2022-12-20T15:34:26;9.47;;;4.37;;
4051;SDS011;2040;50.924;11.604;2022-12-20T15:37:02;8.53;;;4.33;;
4051;SDS011;2040;50.924;11.604;2022-12-20T15:39:28;9.07;;;4.53;;
4051;SDS011;2040;50.924;11.604;2022-12-20T15:41:54;5.63;;;3.77;;
4051;SDS011;2040;50.924;11.604;2022-12-20T15:44:22;7.67;;;4.73;;
4051;SDS011;2040;50.924;11.604;2022-12-20T15:46:50;7.17;;;4.63;;
4051;SDS011;2040;50.924;11.604;2022-12-20T15:49:20;9.83;;;5.10;;
4051;SDS011;2040;50.924;11.604;2022-12-20T15:51:50;5.60;;;4.13;;
4051;SDS011;2040;50.924;11.604;2022-12-20T15:56:50;6.50;;;4.73;;
4051;SDS011;2040;50.924;11.604;2022-12-20T15:59:16;7.80;;;3.93;;
4051;SDS011;2040;50.924;11.604;2022-12-20T16:01:41;10.57;;;4.93;;
4051;SDS011;2040;50.924;11.604;2022-12-20T16:04:09;16.73;;;5.90;;
4051;SDS011;2040;50.924;11.604;2022-12-20T16:06:39;10.80;;;6.20;;
4051;SDS011;2040;50.924;11.604;2022-12-20T16:09:04;14.03;;;6.50;;
4051;SDS011;2040;50.924;11.604;2022-12-20T16:11:30;8.07;;;4.90;;
4051;SDS011;2040;50.924;11.604;2022-12-20T16:13:56;10.47;;;6.20;;
4051;SDS011;2040;50.924;11.604;2022-12-20T16:16:26;13.57;;;6.73;;
4051;SDS011;2040;50.924;11.604;2022-12-20T16:18:54;11.10;;;5.67;;
4051;SDS011;2040;50.924;11.604;2022-12-20T16:21:21;9.27;;;5.60;;
4051;SDS011;2040;50.924;11.604;2022-12-20T16:23:48;10.10;;;5.47;;
4051;SDS011;2040;50.924;11.604;2022-12-20T16:26:15;11.17;;;6.33;;
4051;SDS011;2040;50.924;11.604;2022-12-20T16:28:43;14.30;;;6.83;;
4051;SDS011;2040;50.924;11.604;2022-12-20T16:31:20;12.60;;;7.10;;
4051;SDS011;2040;50.924;11.604;2022-12-20T16:33:52;11.27;;;6.03;;
4051;SDS011;2040;50.924;11.604;2022-12-20T16:36:18;14.13;;;6.30;;
4051;SDS011;2040;50.924;11.604;2022-12-20T16:38:44;8.50;;;4.77;;
4051;SDS011;2040;50.924;11.604;2022-12-20T16:41:14;11.93;;;4.90;;
4051;SDS011;2040;50.924;11.604;2022-12-20T16:43:41;11.77;;;4.80;;
4051;SDS011;2040;50.924;11.604;2022-12-20T16:46:11;6.20;;;4.00;;
4051;SDS011;2040;50.924;11.604;2022-12-20T16:48:38;8.10;;;4.03;;
4051;SDS011;2040;50.924;11.604;2022-12-20T16:54:00;11.30;;;5.40;;
4051;SDS011;2040;50.924;11.604;2022-12-20T16:56:28;10.17;;;5.70;;
4051;SDS011;2040;50.924;11.604;2022-12-20T16:58:54;8.70;;;5.63;;
4051;SDS011;2040;50.924;11.604;2022-12-20T17:01:22;10.30;;;5.47;;
4051;SDS011;2040;50.924;11.604;2022-12-20T17:03:52;10.53;;;5.47;;
4051;SDS011;2040;50.924;11.604;2022-12-20T17:06:18;6.00;;;3.80;;
4051;SDS011;2040;50.924;11.604;2022-12-20T17:08:45;10.20;;;5.80;;
4051;SDS011;2040;50.924;11.604;2022-12-20T17:11:18;10.13;;;5.60;;
4051;SDS011;2040;50.924;11.604;2022-12-20T17:13:44;12.30;;;6.23;;